Nisswa, Minnesota
Current Conditions -  °F | °C
As of 5:53 AM on Friday 19 Dec 2014 (Local Time) from KBRD Reporting Station
Haze Haze  
Wind Chill: 12°   Ceiling: 2600
Heat Index: 19°   Visibility: 5mi
Dew Point: 16°   Wind: 5mph
Humidity: 88%   Direction: 160°SSE
Pressure: 30.18"   Gusts: NA
Location:  46.52°N, 94.29°W
Report Text: KBRD 191153Z AUTO 16004KT 5SM BR OVC026 M07/M09 A3018 RMK AO2 SNE12 SLP244 P0000 60000 T10721089 11072 21072 56012
Loading
Personal Weather Stations






























Interactive Weather Map New forecast layout! Learn more

10-Day Weather Forecast

Advertisements
Track Severe Weather on mobile